createdAt,value
2023-05-14T00:00:19.221Z,100746.75
2023-05-14T00:02:49.746Z,100747.88
2023-05-14T00:05:16.209Z,100743.78
2023-05-14T00:07:42.764Z,100748.44
2023-05-14T00:10:09.606Z,100742.50
2023-05-14T00:12:35.901Z,100742.47
2023-05-14T00:15:02.558Z,100746.84
2023-05-14T00:17:28.979Z,100758.03
2023-05-14T00:19:55.442Z,100748.66
2023-05-14T00:22:21.851Z,100753.69
2023-05-14T00:24:48.248Z,100746.63
2023-05-14T00:27:14.735Z,100736.75
2023-05-14T00:29:41.117Z,100736.47
2023-05-14T00:32:07.878Z,100728.41
2023-05-14T00:34:35.694Z,100731.38
2023-05-14T00:37:02.110Z,100722.31
2023-05-14T00:39:28.431Z,100727.00
2023-05-14T00:41:54.784Z,100729.25
2023-05-14T00:44:21.104Z,100725.84
2023-05-14T00:46:47.592Z,100724.13
2023-05-14T00:49:14.375Z,100716.75
2023-05-14T00:51:41.472Z,100725.06
2023-05-14T00:54:08.137Z,100715.38
2023-05-14T00:56:34.824Z,100720.75
2023-05-14T00:59:01.378Z,100718.25
2023-05-14T01:01:28.601Z,100721.25
2023-05-14T01:03:57.600Z,100716.19
2023-05-14T01:06:27.255Z,100730.84
2023-05-14T01:09:03.281Z,100718.41
2023-05-14T01:11:37.762Z,100715.81
2023-05-14T01:14:38.291Z,100718.75
2023-05-14T01:17:06.240Z,100712.19
2023-05-14T01:19:40.484Z,100714.25
2023-05-14T01:22:06.855Z,100718.06
2023-05-14T01:24:33.360Z,100709.50
2023-05-14T01:27:23.828Z,100723.06
2023-05-14T01:30:02.760Z,100702.81
2023-05-14T01:32:30.832Z,100711.00
2023-05-14T01:34:59.362Z,100709.31
2023-05-14T01:37:28.002Z,100719.84
2023-05-14T01:39:56.061Z,100704.41
2023-05-14T01:42:23.220Z,100715.72
2023-05-14T01:44:49.805Z,100711.88
2023-05-14T01:47:16.180Z,100718.44
2023-05-14T01:49:42.493Z,100713.72
2023-05-14T01:52:08.792Z,100716.03
2023-05-14T01:54:35.313Z,100703.97
2023-05-14T01:57:01.599Z,100709.22
2023-05-14T01:59:29.732Z,100709.47
2023-05-14T02:01:56.235Z,100705.59
2023-05-14T02:04:22.695Z,100710.09
2023-05-14T02:06:49.123Z,100703.53
2023-05-14T02:09:15.601Z,100703.41
2023-05-14T02:11:41.950Z,100697.69
2023-05-14T02:14:08.280Z,100698.69
2023-05-14T02:16:34.675Z,100695.88
2023-05-14T02:19:01.073Z,100707.78
2023-05-14T02:21:27.602Z,100695.72
2023-05-14T02:23:53.948Z,100702.06
2023-05-14T02:26:21.367Z,100697.84
2023-05-14T02:28:47.852Z,100699.50
2023-05-14T02:31:14.431Z,100693.41
2023-05-14T02:33:40.966Z,100698.97
2023-05-14T02:36:07.564Z,100695.22
2023-05-14T02:38:33.876Z,100695.06
2023-05-14T02:41:00.314Z,100696.94
2023-05-14T02:43:26.745Z,100689.16
2023-05-14T02:45:53.081Z,100694.38
2023-05-14T02:48:19.464Z,100682.81
2023-05-14T02:50:46.816Z,100690.91
2023-05-14T02:53:13.170Z,100685.75
2023-05-14T02:55:39.523Z,100681.63
2023-05-14T02:58:05.930Z,100684.56
2023-05-14T03:00:32.403Z,100691.53
2023-05-14T03:02:59.242Z,100676.22
2023-05-14T03:05:25.996Z,100681.56
2023-05-14T03:07:53.645Z,100685.69
2023-05-14T03:10:20.565Z,100690.81
2023-05-14T03:12:47.456Z,100689.81
2023-05-14T03:15:14.936Z,100690.41
2023-05-14T03:17:41.423Z,100693.09
2023-05-14T03:20:08.358Z,100688.72
2023-05-14T03:22:34.661Z,100691.88
2023-05-14T03:25:01.112Z,100688.72
2023-05-14T03:27:27.456Z,100678.00
2023-05-14T03:29:53.786Z,100684.84
2023-05-14T03:32:21.185Z,100681.06
2023-05-14T03:34:47.639Z,100680.94
2023-05-14T03:37:14.004Z,100682.69
2023-05-14T03:39:40.361Z,100680.47
2023-05-14T03:42:06.772Z,100674.88
2023-05-14T03:44:33.185Z,100677.78
2023-05-14T03:46:59.581Z,100678.94
2023-05-14T03:49:26.011Z,100685.00
2023-05-14T03:51:52.376Z,100681.97
2023-05-14T03:54:18.736Z,100680.00
2023-05-14T03:56:45.834Z,100681.69
2023-05-14T03:59:12.141Z,100679.78
2023-05-14T04:01:38.520Z,100673.66
2023-05-14T04:04:05.039Z,100678.06
2023-05-14T04:06:31.423Z,100680.22
2023-05-14T04:08:57.760Z,100676.72
2023-05-14T04:11:24.091Z,100686.81
2023-05-14T04:13:50.559Z,100677.72
2023-05-14T04:16:16.932Z,100674.91
2023-05-14T04:18:43.323Z,100684.16
2023-05-14T04:21:09.750Z,100690.00
2023-05-14T04:23:36.104Z,100692.31
2023-05-14T04:26:02.515Z,100690.72
2023-05-14T04:28:28.857Z,100693.28
2023-05-14T04:30:55.368Z,100677.34
2023-05-14T04:33:21.722Z,100692.94
2023-05-14T04:35:48.336Z,100693.16
2023-05-14T04:38:14.706Z,100701.69
2023-05-14T04:40:43.750Z,100703.38
2023-05-14T04:43:10.656Z,100696.81
2023-05-14T04:45:37.114Z,100694.47
2023-05-14T04:48:04.707Z,100693.63
2023-05-14T04:50:31.258Z,100698.75
2023-05-14T04:52:57.685Z,100699.06
2023-05-14T04:55:24.278Z,100700.66
2023-05-14T04:57:50.700Z,100698.13
2023-05-14T05:00:17.679Z,100705.78
2023-05-14T05:02:44.063Z,100703.69
2023-05-14T05:05:10.658Z,100707.44
2023-05-14T05:07:37.008Z,100707.31
2023-05-14T05:10:03.565Z,100714.84
2023-05-14T05:12:30.203Z,100702.63
2023-05-14T05:14:57.289Z,100708.47
2023-05-14T05:17:24.680Z,100708.69
2023-05-14T05:19:51.098Z,100701.38
2023-05-14T05:22:17.478Z,100703.53
2023-05-14T05:24:43.833Z,100702.28
2023-05-14T05:27:10.221Z,100710.41
2023-05-14T05:29:37.109Z,100707.59
2023-05-14T05:32:03.857Z,100710.59
2023-05-14T05:34:30.389Z,100703.53
2023-05-14T05:36:57.115Z,100701.59
2023-05-14T05:39:23.462Z,100701.78
2023-05-14T05:41:49.810Z,100708.59
2023-05-14T05:44:16.150Z,100711.47
2023-05-14T05:46:42.565Z,100710.13
2023-05-14T05:49:08.876Z,100707.31
2023-05-14T05:51:35.212Z,100709.22
2023-05-14T05:54:01.540Z,100710.63
2023-05-14T05:56:27.896Z,100716.34
2023-05-14T05:58:54.224Z,100709.59
2023-05-14T06:01:20.585Z,100716.00
2023-05-14T06:03:48.527Z,100705.44
2023-05-14T06:06:15.485Z,100707.56
2023-05-14T06:08:42.026Z,100707.31
2023-05-14T06:11:08.442Z,100707.66
2023-05-14T06:13:34.748Z,100716.00
2023-05-14T06:16:01.262Z,100702.88
2023-05-14T06:18:27.718Z,100704.88
2023-05-14T06:20:56.585Z,100709.13
2023-05-14T06:23:22.955Z,100705.19
2023-05-14T06:25:50.832Z,100707.19
2023-05-14T06:28:17.424Z,100703.81
2023-05-14T06:30:43.776Z,100707.34
2023-05-14T06:33:10.320Z,100700.31
2023-05-14T06:35:36.959Z,100710.50
2023-05-14T06:38:03.620Z,100712.88
2023-05-14T06:40:29.989Z,100700.53
2023-05-14T06:42:56.321Z,100706.84
2023-05-14T06:45:22.688Z,100707.19
2023-05-14T06:47:49.080Z,100703.63
2023-05-14T06:50:15.466Z,100707.53
2023-05-14T06:52:43.494Z,100701.00
2023-05-14T06:55:10.081Z,100702.47
2023-05-14T06:57:37.310Z,100690.94
2023-05-14T07:00:06.516Z,100697.25
2023-05-14T07:02:32.931Z,100699.28
2023-05-14T07:04:59.450Z,100693.97
2023-05-14T07:07:25.931Z,100697.09
2023-05-14T07:09:52.335Z,100698.47
2023-05-14T07:12:18.650Z,100692.84
2023-05-14T07:14:45.067Z,100692.66
2023-05-14T07:17:11.486Z,100694.31
2023-05-14T07:19:37.885Z,100687.53
2023-05-14T07:22:04.515Z,100684.91
2023-05-14T07:24:30.824Z,100673.50
2023-05-14T07:26:57.789Z,100676.41
2023-05-14T07:29:25.401Z,100674.41
2023-05-14T07:31:52.080Z,100673.78
2023-05-14T07:34:19.273Z,100673.66
2023-05-14T07:36:46.176Z,100673.66
2023-05-14T07:39:12.598Z,100674.38
2023-05-14T07:41:38.897Z,100674.19
2023-05-14T07:44:05.693Z,100668.09
2023-05-14T07:46:32.001Z,100665.72
2023-05-14T07:48:58.289Z,100666.06
2023-05-14T07:51:28.071Z,100666.53
2023-05-14T07:53:56.410Z,100673.81
2023-05-14T07:56:22.912Z,100661.13
2023-05-14T07:58:50.927Z,100657.34
2023-05-14T08:01:17.626Z,100652.69
2023-05-14T08:03:44.012Z,100647.47
2023-05-14T08:06:10.396Z,100652.06
2023-05-14T08:08:36.799Z,100652.41
2023-05-14T08:11:03.762Z,100645.00
2023-05-14T08:13:30.485Z,100658.13
2023-05-14T08:15:56.812Z,100651.38
2023-05-14T08:18:23.194Z,100650.50
2023-05-14T08:20:49.607Z,100649.88
2023-05-14T08:23:15.930Z,100642.00
2023-05-14T08:25:42.264Z,100643.69
2023-05-14T08:28:08.685Z,100632.81
2023-05-14T08:30:35.029Z,100637.63
2023-05-14T08:33:01.595Z,100630.81
2023-05-14T08:35:27.884Z,100628.97
2023-05-14T08:37:54.305Z,100631.19
2023-05-14T08:40:21.308Z,100624.75
2023-05-14T08:42:48.365Z,100617.78
2023-05-14T08:45:25.503Z,100624.19
2023-05-14T08:47:51.963Z,100618.81
2023-05-14T08:50:21.883Z,100617.16
2023-05-14T08:52:49.415Z,100609.59
2023-05-14T08:55:15.791Z,100611.38
2023-05-14T08:57:42.244Z,100607.25
2023-05-14T09:00:11.905Z,100601.25
2023-05-14T09:02:40.587Z,100601.56
2023-05-14T09:05:07.416Z,100592.41
2023-05-14T09:07:33.828Z,100591.94
2023-05-14T09:10:01.880Z,100590.38
2023-05-14T09:12:28.418Z,100598.31
2023-05-14T09:14:54.793Z,100591.97
2023-05-14T09:17:21.316Z,100601.69
2023-05-14T09:19:53.274Z,100595.41
2023-05-14T09:22:20.367Z,100593.44
2023-05-14T09:25:01.214Z,100593.34
2023-05-14T09:27:29.865Z,100590.56
2023-05-14T09:29:56.202Z,100594.22
2023-05-14T09:32:22.544Z,100587.34
2023-05-14T09:34:48.924Z,100585.19
2023-05-14T09:37:15.257Z,100584.84
2023-05-14T09:39:41.596Z,100584.47
2023-05-14T09:42:08.294Z,100589.22
2023-05-14T09:44:36.243Z,100586.50
2023-05-14T09:47:02.671Z,100579.09
2023-05-14T09:49:29.166Z,100573.78
2023-05-14T09:51:57.753Z,100582.31
2023-05-14T09:54:26.411Z,100594.03
2023-05-14T09:56:54.539Z,100589.34
2023-05-14T09:59:22.117Z,100581.66
2023-05-14T10:01:49.802Z,100582.28
2023-05-14T10:04:16.528Z,100580.34
2023-05-14T10:06:47.725Z,100583.44
2023-05-14T10:09:19.565Z,100582.03
2023-05-14T10:11:50.138Z,100583.34
2023-05-14T10:14:33.488Z,100583.88
2023-05-14T10:17:01.611Z,100580.88
2023-05-14T10:19:31.877Z,100577.16
2023-05-14T10:22:04.860Z,100578.56
2023-05-14T10:24:31.713Z,100594.31
2023-05-14T10:26:58.737Z,100586.25
2023-05-14T10:29:33.900Z,100581.06
2023-05-14T10:32:07.656Z,100577.91
2023-05-14T10:34:37.825Z,100581.19
2023-05-14T10:37:07.676Z,100581.84
2023-05-14T10:40:06.086Z,100587.19
2023-05-14T10:42:39.589Z,100579.22
2023-05-14T10:45:08.647Z,100578.25
2023-05-14T10:47:41.771Z,100579.69
2023-05-14T10:50:14.089Z,100573.38
2023-05-14T10:52:43.292Z,100570.59
2023-05-14T10:55:13.313Z,100572.28
2023-05-14T10:57:43.700Z,100569.75
2023-05-14T11:00:12.456Z,100567.56
2023-05-14T11:02:41.225Z,100558.97
2023-05-14T11:05:10.393Z,100564.03
2023-05-14T11:07:42.711Z,100560.00
2023-05-14T11:10:10.697Z,100564.31
2023-05-14T11:12:39.549Z,100556.72
2023-05-14T11:15:11.179Z,100559.97
2023-05-14T11:17:40.307Z,100556.41
2023-05-14T11:20:08.003Z,100560.34
2023-05-14T11:22:35.701Z,100551.25
2023-05-14T11:25:02.372Z,100554.06
2023-05-14T11:27:29.953Z,100554.53
2023-05-14T11:29:58.002Z,100545.28
2023-05-14T11:32:24.503Z,100551.66
2023-05-14T11:34:51.304Z,100555.13
2023-05-14T11:37:17.757Z,100548.53
2023-05-14T11:39:49.972Z,100549.16
2023-05-14T11:42:19.447Z,100540.47
2023-05-14T11:44:48.837Z,100535.44
2023-05-14T11:47:16.666Z,100540.31
2023-05-14T11:49:42.954Z,100528.13
2023-05-14T11:52:11.691Z,100525.22
2023-05-14T11:54:38.117Z,100522.28
2023-05-14T11:57:16.507Z,100515.03
2023-05-14T11:59:43.369Z,100515.34
2023-05-14T12:02:14.521Z,100514.44
2023-05-14T12:04:42.708Z,100506.47
2023-05-14T12:07:14.824Z,100504.75
2023-05-14T12:09:51.222Z,100511.25
2023-05-14T12:12:20.319Z,100514.56
2023-05-14T12:14:47.358Z,100508.53
2023-05-14T12:17:21.780Z,100492.88
2023-05-14T12:19:53.075Z,100495.94
2023-05-14T12:22:22.097Z,100497.47
2023-05-14T12:24:59.516Z,100494.38
2023-05-14T12:27:27.742Z,100492.09
2023-05-14T12:30:19.782Z,100489.09
2023-05-14T12:32:48.615Z,100483.00
2023-05-14T12:35:15.089Z,100485.03
2023-05-14T12:37:42.528Z,100483.38
2023-05-14T12:40:09.638Z,100478.09
2023-05-14T12:42:36.443Z,100465.63
2023-05-14T12:45:06.918Z,100463.31
2023-05-14T12:47:33.336Z,100453.84
2023-05-14T12:49:59.790Z,100457.69
2023-05-14T12:54:59.927Z,100451.00
2023-05-14T12:57:27.708Z,100450.75
2023-05-14T12:59:55.223Z,100437.88
2023-05-14T13:02:21.848Z,100432.25
2023-05-14T13:04:48.243Z,100428.47
2023-05-14T13:07:14.596Z,100427.03
2023-05-14T13:09:40.880Z,100416.75
2023-05-14T13:12:07.628Z,100425.59
2023-05-14T13:14:34.010Z,100424.53
2023-05-14T13:17:01.015Z,100432.09
2023-05-14T13:19:27.405Z,100429.94
2023-05-14T13:21:53.773Z,100431.00
2023-05-14T13:24:20.121Z,100429.13
2023-05-14T13:26:46.556Z,100420.53
2023-05-14T13:29:12.865Z,100424.09
2023-05-14T13:31:39.201Z,100414.66
2023-05-14T13:34:05.619Z,100415.72
2023-05-14T13:36:32.202Z,100408.59
2023-05-14T13:38:58.553Z,100404.53
2023-05-14T13:41:26.134Z,100396.59
2023-05-14T13:43:52.489Z,100389.03
2023-05-14T13:46:18.809Z,100385.19
2023-05-14T13:48:45.130Z,100373.03
2023-05-14T13:51:11.419Z,100373.84
2023-05-14T13:53:37.759Z,100378.78
2023-05-14T13:56:06.322Z,100379.31
2023-05-14T13:58:32.705Z,100381.66
2023-05-14T14:00:59.097Z,100377.50
2023-05-14T14:03:25.513Z,100367.22
2023-05-14T14:05:52.486Z,100378.50
2023-05-14T14:08:24.000Z,100370.09
2023-05-14T14:10:51.557Z,100373.69
2023-05-14T14:13:17.935Z,100370.34
2023-05-14T14:15:44.346Z,100359.00
2023-05-14T14:18:10.840Z,100363.44
2023-05-14T14:20:37.285Z,100350.56
2023-05-14T14:23:03.670Z,100351.63
2023-05-14T14:25:30.035Z,100341.09
2023-05-14T14:27:56.518Z,100348.66
2023-05-14T14:30:22.892Z,100346.94
2023-05-14T14:32:49.853Z,100345.31
2023-05-14T14:35:18.085Z,100334.81
2023-05-14T14:37:48.919Z,100339.03
2023-05-14T14:40:16.459Z,100333.59
2023-05-14T14:42:43.319Z,100331.06
2023-05-14T14:45:10.298Z,100335.03
2023-05-14T14:47:36.793Z,100332.06
2023-05-14T14:50:03.294Z,100334.44
2023-05-14T14:52:29.848Z,100328.34
2023-05-14T14:54:56.401Z,100328.16
2023-05-14T14:57:22.893Z,100328.34
2023-05-14T14:59:49.391Z,100331.09
2023-05-14T15:02:16.192Z,100324.59
2023-05-14T15:04:42.755Z,100320.16
2023-05-14T15:07:09.155Z,100321.19
2023-05-14T15:09:35.524Z,100317.97
2023-05-14T15:12:01.948Z,100316.34
2023-05-14T15:14:28.422Z,100309.16
2023-05-14T15:16:54.918Z,100307.38
2023-05-14T15:19:21.347Z,100317.44
2023-05-14T15:21:47.776Z,100317.59
2023-05-14T15:24:14.204Z,100309.47
2023-05-14T15:26:40.912Z,100307.72
2023-05-14T15:29:07.731Z,100306.22
2023-05-14T15:31:34.668Z,100297.97
2023-05-14T15:34:01.154Z,100300.44
2023-05-14T15:36:28.506Z,100290.69
2023-05-14T15:38:54.903Z,100297.16
2023-05-14T15:41:21.334Z,100298.56
2023-05-14T15:43:47.792Z,100298.16
2023-05-14T15:46:14.237Z,100297.56
2023-05-14T15:48:40.610Z,100290.56
2023-05-14T15:51:07.711Z,100283.31
2023-05-14T15:53:34.174Z,100297.19
2023-05-14T15:56:00.626Z,100294.91
2023-05-14T15:58:27.020Z,100288.28
2023-05-14T16:00:53.386Z,100297.00
2023-05-14T16:03:19.773Z,100289.44
2023-05-14T16:05:46.786Z,100282.50
2023-05-14T16:08:13.123Z,100283.34
2023-05-14T16:10:39.594Z,100285.50
2023-05-14T16:13:05.968Z,100278.69
2023-05-14T16:15:32.356Z,100284.38
2023-05-14T16:18:00.096Z,100282.22
2023-05-14T16:20:26.594Z,100280.38
2023-05-14T16:22:52.956Z,100283.09
2023-05-14T16:25:19.438Z,100279.22
2023-05-14T16:27:45.882Z,100283.81
2023-05-14T16:30:12.507Z,100281.94
2023-05-14T16:32:38.829Z,100292.94
2023-05-14T16:35:05.428Z,100289.41
2023-05-14T16:37:31.776Z,100288.59
2023-05-14T16:39:58.117Z,100297.91
2023-05-14T16:42:24.486Z,100300.66
2023-05-14T16:44:50.984Z,100303.22
2023-05-14T16:47:17.289Z,100309.03
2023-05-14T16:49:43.626Z,100306.25
2023-05-14T16:52:09.988Z,100312.34
2023-05-14T16:54:36.413Z,100303.94
2023-05-14T16:57:02.840Z,100304.31
2023-05-14T16:59:29.203Z,100306.59
2023-05-14T17:01:55.982Z,100308.56
2023-05-14T17:04:24.789Z,100313.59
2023-05-14T17:06:51.200Z,100310.94
2023-05-14T17:09:17.649Z,100307.53
2023-05-14T17:11:44.043Z,100322.41
2023-05-14T17:14:10.436Z,100310.25
2023-05-14T17:16:38.696Z,100302.06
2023-05-14T17:19:05.111Z,100302.94
2023-05-14T17:21:31.656Z,100299.53
2023-05-14T17:23:58.315Z,100312.66
2023-05-14T17:26:24.676Z,100308.53
2023-05-14T17:28:50.993Z,100311.63
2023-05-14T17:31:17.362Z,100309.97
2023-05-14T17:33:43.794Z,100304.97
2023-05-14T17:36:10.202Z,100300.91
2023-05-14T17:38:36.552Z,100302.69
2023-05-14T17:41:03.186Z,100302.81
2023-05-14T17:43:29.670Z,100308.66
2023-05-14T17:45:56.122Z,100303.63
2023-05-14T17:48:23.844Z,100301.03
2023-05-14T17:50:51.591Z,100307.00
2023-05-14T17:53:18.100Z,100309.28
2023-05-14T17:55:44.672Z,100312.13
2023-05-14T17:58:13.394Z,100309.03
2023-05-14T18:00:40.231Z,100308.19
2023-05-14T18:03:07.815Z,100312.34
2023-05-14T18:05:34.784Z,100306.53
2023-05-14T18:08:01.177Z,100310.53
2023-05-14T18:10:29.364Z,100308.84
2023-05-14T18:12:56.280Z,100309.25
2023-05-14T18:15:25.568Z,100317.00
2023-05-14T18:17:52.800Z,100315.41
2023-05-14T18:20:19.609Z,100318.31
2023-05-14T18:22:45.932Z,100322.44
2023-05-14T18:25:12.884Z,100329.34
2023-05-14T18:27:44.384Z,100326.09
2023-05-14T18:30:15.798Z,100337.09
2023-05-14T18:32:44.026Z,100333.94
2023-05-14T18:35:11.571Z,100341.53
2023-05-14T18:37:37.982Z,100327.09
2023-05-14T18:40:04.978Z,100343.38
2023-05-14T18:42:31.477Z,100343.38
2023-05-14T18:44:57.815Z,100347.09
2023-05-14T18:47:24.238Z,100337.63
2023-05-14T18:49:54.775Z,100349.88
2023-05-14T18:52:22.572Z,100344.91
2023-05-14T18:54:48.946Z,100353.13
2023-05-14T18:57:15.338Z,100351.63
2023-05-14T18:59:41.710Z,100355.91
2023-05-14T19:02:08.084Z,100361.84
2023-05-14T19:04:44.235Z,100365.50
2023-05-14T19:07:17.456Z,100367.69
2023-05-14T19:09:43.830Z,100377.03
2023-05-14T19:12:10.188Z,100374.84
2023-05-14T19:14:36.490Z,100374.00
2023-05-14T19:17:03.117Z,100374.66
2023-05-14T19:19:29.428Z,100381.53
2023-05-14T19:21:55.748Z,100388.66
2023-05-14T19:24:22.101Z,100368.59
2023-05-14T19:26:48.511Z,100382.47
2023-05-14T19:29:14.836Z,100384.00
2023-05-14T19:31:41.215Z,100383.16
2023-05-14T19:34:07.631Z,100387.56
2023-05-14T19:36:34.078Z,100390.25
2023-05-14T19:39:00.457Z,100381.78
2023-05-14T19:41:27.632Z,100384.47
2023-05-14T19:43:53.991Z,100368.28
2023-05-14T19:46:20.468Z,100377.78
2023-05-14T19:48:48.387Z,100385.38
2023-05-14T19:51:14.797Z,100372.00
2023-05-14T19:53:41.163Z,100377.59
2023-05-14T19:56:07.499Z,100379.09
2023-05-14T19:58:33.892Z,100378.69
2023-05-14T20:01:00.708Z,100376.69
2023-05-14T20:03:27.242Z,100372.00
2023-05-14T20:05:54.815Z,100368.97
2023-05-14T20:08:21.426Z,100369.31
2023-05-14T20:10:48.478Z,100373.53
2023-05-14T20:13:15.056Z,100366.69
2023-05-14T20:15:41.887Z,100376.13
2023-05-14T20:18:08.569Z,100379.38
2023-05-14T20:20:35.514Z,100377.00
2023-05-14T20:23:02.052Z,100371.94
2023-05-14T20:25:28.890Z,100372.16
2023-05-14T20:27:55.425Z,100370.78
2023-05-14T20:30:21.806Z,100372.69
2023-05-14T20:32:48.196Z,100368.66
2023-05-14T20:35:14.743Z,100368.47
2023-05-14T20:37:41.296Z,100370.00
2023-05-14T20:40:10.327Z,100367.13
2023-05-14T20:42:37.104Z,100374.06
2023-05-14T20:45:05.028Z,100369.69
2023-05-14T20:47:34.091Z,100365.81
2023-05-14T20:50:00.938Z,100369.19
2023-05-14T20:52:27.516Z,100361.13
2023-05-14T20:54:53.926Z,100365.50
2023-05-14T20:57:20.439Z,100367.00
2023-05-14T20:59:47.401Z,100355.53
2023-05-14T21:02:13.821Z,100353.31
2023-05-14T21:04:40.535Z,100347.41
2023-05-14T21:07:07.151Z,100356.22
2023-05-14T21:09:33.509Z,100349.13
2023-05-14T21:11:59.872Z,100349.47
2023-05-14T21:14:26.259Z,100356.75
2023-05-14T21:16:52.777Z,100348.13
2023-05-14T21:19:19.464Z,100350.66
2023-05-14T21:21:47.187Z,100345.75
2023-05-14T21:24:13.533Z,100353.03
2023-05-14T21:26:40.298Z,100339.47
2023-05-14T21:29:06.859Z,100340.97
2023-05-14T21:31:33.250Z,100337.25
2023-05-14T21:33:59.581Z,100343.38
2023-05-14T21:36:25.947Z,100341.53
2023-05-14T21:38:53.461Z,100340.31
2023-05-14T21:41:19.821Z,100333.53
2023-05-14T21:43:46.788Z,100328.50
2023-05-14T21:46:13.209Z,100317.34
2023-05-14T21:48:39.642Z,100325.94
2023-05-14T21:51:06.466Z,100331.50
2023-05-14T21:53:32.843Z,100326.94
2023-05-14T21:55:59.142Z,100323.56
2023-05-14T21:58:26.737Z,100321.19
2023-05-14T22:00:53.058Z,100318.44
2023-05-14T22:03:19.502Z,100313.72
2023-05-14T22:05:46.010Z,100322.97
2023-05-14T22:08:12.346Z,100316.19
2023-05-14T22:10:38.683Z,100316.84
2023-05-14T22:13:04.991Z,100319.88
2023-05-14T22:15:31.321Z,100325.09
2023-05-14T22:17:57.669Z,100322.06
2023-05-14T22:20:24.149Z,100326.22
2023-05-14T22:22:51.425Z,100318.78
2023-05-14T22:25:17.783Z,100306.66
2023-05-14T22:27:44.169Z,100313.72
2023-05-14T22:30:10.990Z,100319.41
2023-05-14T22:32:37.443Z,100311.19
2023-05-14T22:35:04.051Z,100319.28
2023-05-14T22:37:30.433Z,100315.88
2023-05-14T22:39:56.742Z,100314.19
2023-05-14T22:42:23.078Z,100321.13
2023-05-14T22:44:49.369Z,100321.59
2023-05-14T22:47:16.345Z,100323.78
2023-05-14T22:49:43.510Z,100316.38
2023-05-14T22:52:10.104Z,100317.22
2023-05-14T22:54:36.501Z,100312.03
2023-05-14T22:57:03.441Z,100315.56
2023-05-14T22:59:29.766Z,100303.44
2023-05-14T23:01:56.098Z,100297.00
2023-05-14T23:04:22.522Z,100299.53
2023-05-14T23:06:48.859Z,100291.50
2023-05-14T23:09:15.254Z,100279.88
2023-05-14T23:11:41.680Z,100283.59
2023-05-14T23:14:08.304Z,100286.78
2023-05-14T23:16:35.222Z,100276.41
2023-05-14T23:19:01.724Z,100282.59
2023-05-14T23:21:28.163Z,100275.47
2023-05-14T23:23:54.537Z,100286.34
2023-05-14T23:26:21.674Z,100286.78
2023-05-14T23:28:47.977Z,100287.91
2023-05-14T23:31:14.307Z,100277.47
2023-05-14T23:33:40.954Z,100271.34
2023-05-14T23:36:07.943Z,100273.19
2023-05-14T23:38:34.399Z,100266.59
2023-05-14T23:41:00.747Z,100264.81
2023-05-14T23:43:27.154Z,100266.75
2023-05-14T23:45:53.655Z,100267.13
2023-05-14T23:48:20.048Z,100271.22
2023-05-14T23:50:46.410Z,100272.66
2023-05-14T23:53:12.780Z,100263.75
2023-05-14T23:55:39.372Z,100265.34
2023-05-14T23:58:06.176Z,100262.91
